Time;durP1;ratioP1;P1;durP2;ratioP2;P2;SDS_P1;SDS_P2;PMS_P1;PMS_P2;Temp;Humidity;BMP_temperature;BMP_pressure;BME280_temperature;BME280_humidity;BME280_pressure;Samples;Min_cycle;Max_cycle;Signal;HPM_P1;HPM_P2
2022/03/22 00:01:29;;;;;;;48.33;25.42;;;;;;;7.37;100.00;102974.69;5214425;28;20026;-79
2022/03/22 00:04:02;;;;;;;46.25;22.98;;;;;;;7.23;100.00;102967.53;5221345;28;20021;-79
2022/03/22 00:06:32;;;;;;;47.63;21.98;;;;;;;7.17;100.00;102975.03;5231406;28;20078;-79
2022/03/22 00:09:03;;;;;;;46.80;23.20;;;;;;;7.13;100.00;102974.38;5230393;28;20492;-79
2022/03/22 00:11:33;;;;;;;53.53;24.63;;;;;;;7.09;100.00;102966.66;5230447;28;20028;-79
2022/03/22 00:14:07;;;;;;;54.92;25.05;;;;;;;7.16;100.00;102976.00;5232964;28;20028;-79
2022/03/22 00:16:38;;;;;;;46.30;22.85;;;;;;;7.18;100.00;102971.44;5229458;28;20021;-79
2022/03/22 00:19:08;;;;;;;55.80;25.38;;;;;;;7.08;100.00;102973.81;5228629;28;20036;-79
2022/03/22 00:21:39;;;;;;;56.00;25.20;;;;;;;6.97;100.00;102979.75;5228794;28;20025;-79
2022/03/22 00:24:09;;;;;;;53.75;25.80;;;;;;;6.91;100.00;102973.94;5228344;28;20024;-79
2022/03/22 00:26:39;;;;;;;48.80;24.17;;;;;;;6.85;100.00;102977.81;5229007;28;20013;-79
2022/03/22 00:29:10;;;;;;;48.25;23.00;;;;;;;6.81;100.00;102978.09;5228235;28;20528;-79
2022/03/22 00:31:41;;;;;;;53.50;24.75;;;;;;;6.79;100.00;102975.53;5228316;28;20035;-79
2022/03/22 00:34:13;;;;;;;52.55;23.83;;;;;;;6.73;100.00;102979.41;5227391;28;20020;-79
2022/03/22 00:36:45;;;;;;;58.90;24.95;;;;;;;6.65;100.00;102986.13;5227113;28;20037;-79
2022/03/22 00:39:16;;;;;;;57.63;25.90;;;;;;;6.58;100.00;102982.13;5227787;28;20025;-79
2022/03/22 00:41:46;;;;;;;59.55;24.10;;;;;;;6.51;100.00;102983.41;5228089;28;20419;-79
2022/03/22 00:44:17;;;;;;;57.33;24.23;;;;;;;6.43;100.00;102983.84;5227052;28;20049;-79
2022/03/22 00:46:48;;;;;;;46.15;21.85;;;;;;;6.35;100.00;102978.94;5227447;28;20081;-79
2022/03/22 00:49:18;;;;;;;62.70;24.10;;;;;;;6.37;100.00;102984.16;5227949;28;20036;-78
2022/03/22 00:51:49;;;;;;;49.85;24.27;;;;;;;6.39;100.00;102980.50;5227704;28;20028;-75
2022/03/22 00:54:20;;;;;;;57.92;26.20;;;;;;;6.35;100.00;102981.59;5226573;28;20036;-77
2022/03/22 00:56:53;;;;;;;56.40;25.80;;;;;;;6.30;100.00;102986.34;5227522;28;20095;-79
2022/03/22 01:02:13;;;;;;;53.30;24.50;;;;;;;6.14;100.00;102985.47;5204609;28;20508;-77
2022/03/22 01:04:44;;;;;;;51.63;23.50;;;;;;;6.07;100.00;102986.75;5218970;28;20060;-77
2022/03/22 01:07:14;;;;;;;46.47;21.85;;;;;;;6.01;100.00;102981.75;5227021;28;20029;-77
2022/03/22 01:09:45;;;;;;;55.90;24.20;;;;;;;6.00;100.00;102985.38;5226541;28;20028;-77
2022/03/22 01:12:15;;;;;;;58.00;25.48;;;;;;;6.01;100.00;102981.75;5226857;28;20074;-77
2022/03/22 01:14:46;;;;;;;54.22;25.00;;;;;;;5.97;100.00;102973.97;5226108;28;20033;-77
2022/03/22 01:17:16;;;;;;;55.08;26.02;;;;;;;5.93;100.00;102975.06;5227386;28;20029;-77
2022/03/22 01:19:47;;;;;;;62.22;24.92;;;;;;;5.90;100.00;102975.19;5226663;28;20021;-77
2022/03/22 01:22:18;;;;;;;50.17;24.40;;;;;;;5.85;100.00;102979.03;5226469;28;20397;-77
2022/03/22 01:24:49;;;;;;;55.88;24.17;;;;;;;5.79;100.00;102976.72;5225800;28;20017;-77
2022/03/22 01:27:21;;;;;;;52.70;23.45;;;;;;;5.72;100.00;102981.50;5226956;28;20029;-77
2022/03/22 01:29:52;;;;;;;53.25;25.58;;;;;;;5.67;100.00;102978.22;5223497;28;20104;-77
2022/03/22 01:32:22;;;;;;;68.30;27.17;;;;;;;5.63;100.00;102990.00;5216584;28;20024;-77
2022/03/22 01:34:53;;;;;;;60.05;26.45;;;;;;;5.60;100.00;102992.81;5225402;28;20300;-77
2022/03/22 01:37:24;;;;;;;57.05;25.40;;;;;;;5.53;100.00;102989.63;5226766;28;20499;-77
2022/03/22 01:39:54;;;;;;;61.50;25.27;;;;;;;5.51;100.00;102986.19;5226435;28;20032;-77
2022/03/22 01:42:25;;;;;;;60.88;25.20;;;;;;;5.46;100.00;102988.22;5226323;28;20079;-77
2022/03/22 01:44:55;;;;;;;55.45;24.48;;;;;;;5.45;100.00;102990.03;5225750;28;20456;-77
2022/03/22 01:47:26;;;;;;;52.63;24.60;;;;;;;5.43;100.00;102991.91;5226453;28;20033;-77
2022/03/22 01:49:56;;;;;;;51.88;24.35;;;;;;;5.41;100.00;102990.25;5225934;28;20025;-77
2022/03/22 01:52:27;;;;;;;55.35;24.77;;;;;;;5.39;100.00;102989.50;5225850;28;20035;-77
2022/03/22 01:54:57;;;;;;;54.35;25.92;;;;;;;5.39;100.00;102984.19;5225330;28;20017;-77
2022/03/22 01:57:30;;;;;;;54.55;24.42;;;;;;;5.39;100.00;102985.03;5225817;28;20033;-77
2022/03/22 02:00:04;;;;;;;54.30;25.27;;;;;;;5.45;100.00;102973.19;5219186;28;20037;-77
2022/03/22 02:08:16;;;;;;;54.25;26.20;;;;;;;5.66;100.00;102979.19;5226117;28;20389;-77
2022/03/22 02:10:47;;;;;;;53.35;24.17;;;;;;;5.68;100.00;102980.84;5224520;28;20024;-77
2022/03/22 02:13:18;;;;;;;57.38;25.88;;;;;;;5.71;100.00;102985.13;5225871;28;20476;-77
2022/03/22 02:15:53;;;;;;;58.42;24.85;;;;;;;5.71;100.00;102975.31;5225342;28;20021;-77
2022/03/22 02:18:24;;;;;;;65.30;25.77;;;;;;;5.72;100.00;102976.19;5224346;28;20459;-77
2022/03/22 02:20:55;;;;;;;55.10;23.90;;;;;;;5.70;100.00;102978.06;5225436;28;20485;-77
2022/03/22 02:24:03;;;;;;;63.15;24.80;;;;;;;5.59;100.00;102978.66;5225574;28;20027;-77
2022/03/22 02:26:34;;;;;;;51.33;22.85;;;;;;;5.51;100.00;102977.34;5225363;28;20024;-77
2022/03/22 02:29:05;;;;;;;54.92;22.55;;;;;;;5.42;100.00;102982.22;5225215;28;20057;-77
2022/03/22 02:31:35;;;;;;;55.63;24.30;;;;;;;5.38;100.00;102975.34;5224876;28;20017;-77
2022/03/22 02:34:06;;;;;;;48.15;23.45;;;;;;;5.35;100.00;102979.94;5225408;28;20112;-77
2022/03/22 02:36:36;;;;;;;55.83;25.30;;;;;;;5.31;100.00;102975.72;5225465;28;20476;-77
2022/03/22 02:39:08;;;;;;;51.78;24.65;;;;;;;5.30;100.00;102982.00;5224127;28;20492;-77
2022/03/22 02:41:38;;;;;;;56.95;25.65;;;;;;;5.31;100.00;102975.72;5225708;28;20035;-77
2022/03/22 02:44:10;;;;;;;52.08;24.27;;;;;;;5.30;100.00;102974.88;5224812;28;20032;-77
2022/03/22 02:46:41;;;;;;;51.85;23.40;;;;;;;5.32;100.00;102974.78;5225593;28;20527;-77
2022/03/22 02:49:12;;;;;;;56.97;23.33;;;;;;;5.35;100.00;102979.94;5225020;28;20060;-77
2022/03/22 02:51:43;;;;;;;55.35;24.33;;;;;;;5.37;100.00;102978.94;5225367;28;20070;-77
2022/03/22 02:54:26;;;;;;;50.10;23.42;;;;;;;5.38;100.00;102980.66;5224917;28;20028;-76
2022/03/22 02:56:58;;;;;;;55.85;25.58;;;;;;;5.34;100.00;102981.75;5225198;28;20021;-77
2022/03/22 02:59:29;;;;;;;55.40;23.23;;;;;;;5.33;100.00;102980.03;5224360;28;20357;-77
2022/03/22 03:02:00;;;;;;;48.90;21.40;;;;;;;5.33;100.00;102980.03;5204765;28;20034;-77
2022/03/22 03:04:31;;;;;;;48.47;23.73;;;;;;;5.36;100.00;102979.00;5211800;28;20059;-77
2022/03/22 03:07:02;;;;;;;50.67;23.38;;;;;;;5.35;100.00;102980.81;5225306;28;20437;-77
2022/03/22 03:09:32;;;;;;;47.60;22.42;;;;;;;5.30;100.00;102982.00;5224229;28;20028;-77
2022/03/22 03:12:03;;;;;;;54.17;23.77;;;;;;;5.27;100.00;102982.13;5224530;28;20032;-77
2022/03/22 03:17:22;;;;;;;51.90;21.63;;;;;;;5.23;100.00;102983.25;5224881;28;20028;-77
2022/03/22 03:19:53;;;;;;;51.97;20.80;;;;;;;5.24;100.00;102991.16;5223417;28;20428;-77
2022/03/22 03:22:23;;;;;;;47.75;22.17;;;;;;;5.25;100.00;102990.22;5223457;28;20079;-76
2022/03/22 03:24:54;;;;;;;51.83;22.38;;;;;;;5.22;100.00;102987.72;5224279;28;20013;-77
2022/03/22 03:27:24;;;;;;;51.45;23.23;;;;;;;5.20;100.00;102993.09;5224658;28;20392;-77
2022/03/22 03:29:54;;;;;;;50.88;22.38;;;;;;;5.19;100.00;102986.06;5221204;28;20022;-76
2022/03/22 03:32:25;;;;;;;49.00;21.23;;;;;;;5.18;100.00;102988.81;5213987;28;20025;-77
2022/03/22 03:34:56;;;;;;;49.75;21.63;;;;;;;5.15;100.00;102991.63;5224095;28;20029;-77
2022/03/22 03:40:13;;;;;;;48.05;21.50;;;;;;;5.15;100.00;102987.16;5224425;28;20032;-77
2022/03/22 03:42:44;;;;;;;41.05;21.33;;;;;;;5.12;100.00;102987.34;5224606;28;20024;-77
2022/03/22 03:48:04;;;;;;;45.42;19.83;;;;;;;5.03;100.00;102992.25;5224365;28;20017;-77
2022/03/22 03:50:35;;;;;;;44.58;21.50;;;;;;;4.98;100.00;102988.97;5224266;28;20032;-77
2022/03/22 03:53:05;;;;;;;43.53;20.25;;;;;;;4.91;100.00;102988.41;5224441;28;20025;-77
2022/03/22 03:55:36;;;;;;;50.60;21.25;;;;;;;4.85;100.00;102994.91;5224495;28;20029;-77
2022/03/22 03:58:06;;;;;;;51.80;23.20;;;;;;;4.80;100.00;103001.38;5225301;28;20280;-77
2022/03/22 04:00:37;;;;;;;49.58;21.13;;;;;;;4.67;100.00;103001.16;5215080;28;20056;-77
2022/03/22 04:03:07;;;;;;;43.22;20.13;;;;;;;4.57;100.00;103005.19;5209868;28;20521;-76
2022/03/22 04:05:38;;;;;;;43.65;20.75;;;;;;;4.53;100.00;103008.94;5220583;28;20032;-76
2022/03/22 04:08:08;;;;;;;45.20;21.77;;;;;;;4.52;100.00;103007.19;5224275;28;20032;-77
2022/03/22 04:10:39;;;;;;;46.13;20.77;;;;;;;4.51;100.00;103010.78;5224592;28;20100;-77
2022/03/22 04:13:09;;;;;;;50.83;21.38;;;;;;;4.51;100.00;103010.78;5224338;28;20484;-77
2022/03/22 04:15:41;;;;;;;47.95;21.73;;;;;;;4.53;100.00;103011.59;5223813;28;20498;-77
2022/03/22 04:18:11;;;;;;;51.03;21.63;;;;;;;4.52;100.00;103013.38;5224164;28;20392;-77
2022/03/22 04:20:42;;;;;;;53.00;22.15;;;;;;;4.51;100.00;103010.78;5224612;28;20029;-76
2022/03/22 04:23:13;;;;;;;46.50;21.55;;;;;;;4.49;100.00;103010.00;5226573;28;20032;-76
2022/03/22 04:25:43;;;;;;;43.88;20.05;;;;;;;4.47;100.00;103014.53;5227299;28;20484;-77
2022/03/22 04:33:52;;;;;;;46.83;20.15;;;;;;;4.30;100.00;103008.22;5227669;28;20025;-77
2022/03/22 04:36:22;;;;;;;49.75;21.52;;;;;;;4.28;100.00;103009.25;5227331;28;20025;-76
2022/03/22 04:38:53;;;;;;;47.15;21.13;;;;;;;4.25;100.00;102999.59;5228145;28;20060;-77
2022/03/22 04:41:23;;;;;;;43.95;19.80;;;;;;;4.26;100.00;103003.97;5227375;28;20025;-77
2022/03/22 04:43:54;;;;;;;53.30;22.15;;;;;;;4.28;100.00;103009.25;5227676;28;20107;-77
2022/03/22 04:46:25;;;;;;;46.58;20.00;;;;;;;4.27;100.00;103012.84;5226822;28;20035;-77
2022/03/22 04:48:55;;;;;;;49.47;20.98;;;;;;;4.24;100.00;103008.53;5227657;28;20024;-77
2022/03/22 04:57:04;;;;;;;49.03;20.52;;;;;;;4.29;100.00;103011.81;5227512;28;20107;-75
2022/03/22 04:59:34;;;;;;;46.45;21.42;;;;;;;4.23;100.00;103009.47;5225878;28;20449;-76
2022/03/22 05:02:05;;;;;;;44.97;21.08;;;;;;;4.21;100.00;103021.06;5208016;28;20507;-76
2022/03/22 05:04:35;;;;;;;56.97;22.00;;;;;;;4.18;100.00;103015.94;5219740;28;20103;-76
2022/03/22 05:07:06;;;;;;;45.97;21.40;;;;;;;4.13;100.00;103018.78;5227238;28;20082;-76
2022/03/22 05:09:36;;;;;;;51.53;21.35;;;;;;;4.09;100.00;103019.88;5226808;28;20048;-76
2022/03/22 05:12:13;;;;;;;45.92;20.88;;;;;;;4.10;100.00;103027.75;5227256;28;20025;-76
2022/03/22 05:14:47;;;;;;;50.60;20.90;;;;;;;4.18;100.00;103024.75;5226873;28;20028;-75
2022/03/22 05:17:30;;;;;;;49.05;21.45;;;;;;;4.15;100.00;103028.41;5225999;28;20506;-75
2022/03/22 05:20:20;;;;;;;41.58;19.08;;;;;;;4.07;100.00;103037.69;5226494;28;20032;-75
2022/03/22 05:22:51;;;;;;;43.33;18.95;;;;;;;4.00;100.00;103036.22;5227195;28;20028;-75
2022/03/22 05:25:21;;;;;;;48.22;20.75;;;;;;;3.95;100.00;103032.91;5226487;28;20158;-77
2022/03/22 05:27:52;;;;;;;52.78;21.67;;;;;;;3.92;100.00;103039.25;5227126;28;20099;-78
2022/03/22 05:30:22;;;;;;;51.10;21.23;;;;;;;3.93;100.00;103046.28;5219663;28;20041;-78
2022/03/22 05:32:53;;;;;;;52.58;21.52;;;;;;;3.98;100.00;103048.72;5220518;28;20032;-75
2022/03/22 05:35:23;;;;;;;43.10;20.13;;;;;;;4.04;100.00;103046.63;5226286;28;20104;-77
2022/03/22 05:37:54;;;;;;;54.95;20.40;;;;;;;4.03;100.00;103049.38;5226724;28;20031;-77
2022/03/22 05:40:24;;;;;;;52.58;22.02;;;;;;;4.05;100.00;103050.16;5226644;28;20021;-77
2022/03/22 05:42:55;;;;;;;45.53;19.77;;;;;;;4.08;100.00;103053.53;5226471;28;20342;-77
2022/03/22 05:45:26;;;;;;;50.08;20.65;;;;;;;4.07;100.00;103046.50;5225994;28;20036;-77
2022/03/22 05:48:00;;;;;;;50.67;20.85;;;;;;;3.99;100.00;103045.13;5226241;28;20480;-77
2022/03/22 05:50:30;;;;;;;48.55;20.27;;;;;;;3.96;100.00;103050.56;5226138;28;20031;-77
2022/03/22 05:53:01;;;;;;;47.03;19.23;;;;;;;3.98;100.00;103046.06;5225977;28;20280;-77
2022/03/22 05:55:31;;;;;;;49.85;20.30;;;;;;;3.99;100.00;103050.44;5225986;28;20033;-77
2022/03/22 05:58:03;;;;;;;52.28;22.05;;;;;;;3.98;100.00;103048.72;5226448;28;20028;-77
2022/03/22 06:00:34;;;;;;;49.88;20.55;;;;;;;3.99;100.00;103053.09;5216354;28;20021;-77
2022/03/22 06:03:05;;;;;;;52.78;20.40;;;;;;;4.14;100.00;103044.41;5212460;28;20061;-77
2022/03/22 06:05:37;;;;;;;47.33;19.77;;;;;;;4.20;100.00;103044.13;5223942;28;20052;-80
2022/03/22 06:08:07;;;;;;;49.17;20.55;;;;;;;4.26;100.00;103050.94;5228477;28;20075;-80
2022/03/22 06:10:38;;;;;;;61.35;20.38;;;;;;;4.27;100.00;103055.34;5228574;28;20056;-82
2022/03/22 06:13:08;;;;;;;55.22;20.63;;;;;;;4.28;100.00;103052.63;5227345;28;20029;-79
2022/03/22 06:15:39;;;;;;;50.65;19.13;;;;;;;4.40;100.00;103054.69;5227528;28;20392;-79
2022/03/22 06:18:11;;;;;;;45.28;19.55;;;;;;;4.50;100.00;103051.59;5225969;28;20041;-79
2022/03/22 06:20:42;;;;;;;42.65;18.90;;;;;;;4.60;100.00;103052.88;5226018;28;20017;-79
2022/03/22 06:23:14;;;;;;;50.65;20.27;;;;;;;4.72;100.00;103059.38;5225738;28;20021;-82
2022/03/22 06:25:44;;;;;;;53.63;21.60;;;;;;;4.88;100.00;103071.88;5225659;28;20025;-76
2022/03/22 06:28:18;;;;;;;45.50;19.90;;;;;;;5.06;100.00;103070.09;5225568;28;20505;-76
2022/03/22 06:30:48;;;;;;;40.40;19.17;;;;;;;5.25;100.00;103064.72;5224974;28;20021;-76
2022/03/22 06:33:22;;;;;;;55.13;22.20;;;;;;;5.48;100.00;103076.88;5224289;28;20391;-76
2022/03/22 06:35:53;;;;;;;42.60;19.05;;;;;;;5.74;100.00;103072.84;5225009;28;20037;-76
2022/03/22 06:38:24;;;;;;;46.38;18.00;;;;;;;6.02;100.00;103074.06;5225402;28;20425;-77
2022/03/22 06:40:54;;;;;;;34.63;18.65;;;;;;;6.27;100.00;103078.94;5225642;28;20055;-77
2022/03/22 06:43:25;;;;;;;54.95;19.15;;;;;;;6.52;100.00;103073.09;5225712;28;20029;-76
2022/03/22 06:45:55;;;;;;;41.70;19.05;;;;;;;6.82;100.00;103078.53;5224923;28;20500;-78
2022/03/22 06:48:26;;;;;;;43.72;18.13;;;;;;;7.12;100.00;103078.56;5226555;28;20013;-77
2022/03/22 06:50:57;;;;;;;36.35;18.88;;;;;;;7.44;100.00;103088.22;5219375;28;20029;-77
2022/03/22 06:53:28;;;;;;;41.33;19.00;;;;;;;7.85;100.00;103092.03;5195859;28;20135;-78
2022/03/22 06:55:58;;;;;;;36.40;18.10;;;;;;;8.19;100.00;103091.66;5216133;28;20032;-77
2022/03/22 06:58:30;;;;;;;40.28;17.75;;;;;;;8.50;100.00;103087.94;5222295;28;20025;-77
2022/03/22 07:01:01;;;;;;;33.25;17.15;;;;;;;8.81;100.00;103085.94;5210200;28;20429;-77
2022/03/22 07:03:32;;;;;;;30.88;16.55;;;;;;;9.08;100.00;103088.59;5215689;28;20021;-77
2022/03/22 07:06:04;;;;;;;36.75;18.33;;;;;;;9.41;100.00;103095.34;5221873;28;20146;-77
2022/03/22 07:08:35;;;;;;;36.53;17.95;;;;;;;9.57;100.00;103091.50;5210757;28;20029;-77
2022/03/22 07:13:54;;;;;;;34.75;16.67;;;;;;;10.06;100.00;103097.97;5223318;28;20504;-77
2022/03/22 07:16:27;;;;;;;34.53;18.00;;;;;;;10.10;100.00;103094.13;5222575;28;20329;-77
2022/03/22 07:18:58;;;;;;;39.78;17.38;;;;;;;10.13;100.00;103097.41;5223188;28;20021;-77
2022/03/22 07:21:29;;;;;;;36.97;17.75;;;;;;;10.18;100.00;103102.47;5222856;28;20032;-77
2022/03/22 07:24:00;;;;;;;32.42;17.45;;;;;;;10.16;100.00;103099.03;5223434;28;20021;-77
2022/03/22 07:26:30;;;;;;;31.98;16.88;;;;;;;10.28;100.00;103098.19;5223209;28;20028;-78
2022/03/22 07:29:01;;;;;;;32.58;17.65;;;;;;;10.44;100.00;103092.59;5223209;28;20036;-77
2022/03/22 07:31:34;;;;;;;35.40;17.38;;;;;;;10.83;100.00;103094.19;5222758;28;20154;-77
2022/03/22 07:34:06;;;;;;;30.55;16.13;;;;;;;11.23;100.00;103101.94;5223003;28;20425;-77
2022/03/22 07:36:39;;;;;;;36.47;16.67;;;;;;;11.61;100.00;103106.25;5221932;28;20040;-76
2022/03/22 07:39:11;;;;;;;32.10;16.30;;;;;;;11.89;100.00;103107.66;5223591;28;20025;-79
2022/03/22 07:41:43;;;;;;;32.40;16.50;;;;;;;12.12;100.00;103104.03;5223756;28;20047;-79
2022/03/22 07:44:14;;;;;;;29.77;17.30;;;;;;;12.42;100.00;103100.72;5222879;28;20062;-78
2022/03/22 07:46:45;;;;;;;29.92;15.32;;;;;;;12.70;100.00;103101.16;5223418;28;20029;-77
2022/03/22 07:54:54;;;;;;;29.90;16.23;;;;;;;13.42;100.00;103103.31;5213732;28;20025;-77
2022/03/22 07:57:25;;;;;;;37.50;17.55;;;;;;;13.77;100.00;103102.97;5207947;28;20068;-77
2022/03/22 07:59:56;;;;;;;26.65;17.50;;;;;;;13.98;100.00;103100.25;5222544;28;20100;-78
2022/03/22 08:02:26;;;;;;;31.88;17.60;;;;;;;14.31;100.00;103104.53;5210565;28;20033;-78
2022/03/22 08:04:57;;;;;;;32.10;17.60;;;;;;;14.44;100.00;103101.59;5203101;28;20025;-79
2022/03/22 08:07:28;;;;;;;29.33;16.30;;;;;;;14.58;100.00;103109.34;5213765;28;20039;-82
2022/03/22 08:09:58;;;;;;;29.77;16.60;;;;;;;14.75;100.00;103107.81;5218830;28;20031;-79
2022/03/22 08:12:29;;;;;;;34.28;17.92;;;;;;;14.84;100.00;103109.69;5226430;28;20021;-79
2022/03/22 08:14:59;;;;;;;33.63;17.95;;;;;;;15.15;100.00;103106.88;5224524;28;20110;-79
2022/03/22 08:17:29;;;;;;;29.88;16.85;;;;;;;15.23;100.00;103105.19;5226802;28;20035;-79
2022/03/22 08:20:00;;;;;;;33.35;17.55;;;;;;;15.35;100.00;103105.88;5226460;28;20035;-79
2022/03/22 08:22:32;;;;;;;35.25;17.48;;;;;;;15.22;100.00;103105.34;5225506;28;20174;-79
2022/03/22 08:25:07;;;;;;;34.60;17.73;;;;;;;15.35;100.00;103103.19;5225564;28;20033;-79
2022/03/22 08:27:37;;;;;;;29.98;17.40;;;;;;;15.69;100.00;103105.47;5226921;28;20035;-79
2022/03/22 08:30:10;;;;;;;33.50;17.08;;;;;;;15.70;100.00;103107.16;5224335;28;20480;-79
2022/03/22 08:32:42;;;;;;;36.65;17.08;;;;;;;15.67;100.00;103110.19;5226281;28;20036;-79
2022/03/22 08:35:12;;;;;;;30.63;17.35;;;;;;;15.69;100.00;103100.91;5225474;28;20029;-79
2022/03/22 08:37:43;;;;;;;31.15;16.63;;;;;;;15.92;100.00;103108.69;5226430;28;20048;-79
2022/03/22 08:40:14;;;;;;;30.67;17.55;;;;;;;16.03;100.00;103112.06;5225747;28;20263;-79
2022/03/22 08:42:47;;;;;;;34.88;16.85;;;;;;;16.40;100.00;103110.34;5228000;28;20056;-83
2022/03/22 08:45:21;;;;;;;33.35;17.98;;;;;;;16.39;100.00;103108.66;5229296;28;20111;-80
2022/03/22 08:47:53;;;;;;;31.08;16.38;;;;;;;16.58;95.30;103105.84;5229995;28;20519;-82
2022/03/22 08:50:25;;;;;;;34.80;17.67;;;;;;;16.47;97.62;103106.91;5227150;28;20040;-83
2022/03/22 08:52:57;;;;;;;29.25;17.08;;;;;;;16.28;100.00;103107.00;5229149;28;20035;-82
2022/03/22 08:55:27;;;;;;;30.45;17.40;;;;;;;16.64;96.85;103112.53;5229015;28;20393;-82
2022/03/22 08:58:04;;;;;;;34.97;17.27;;;;;;;16.85;97.69;103109.56;5229489;28;20031;-82
2022/03/22 09:00:36;;;;;;;28.40;17.27;;;;;;;16.98;89.34;103115.50;5213333;28;20029;-81
2022/03/22 09:03:08;;;;;;;33.35;18.40;;;;;;;17.11;94.20;103115.09;5217722;28;20033;-82
2022/03/22 09:08:28;;;;;;;31.42;18.15;;;;;;;17.44;92.45;103110.81;5229020;28;20075;-81
2022/03/22 09:10:59;;;;;;;32.80;17.42;;;;;;;17.39;82.76;103110.44;5227694;28;20025;-81
2022/03/22 09:13:29;;;;;;;34.92;18.27;;;;;;;17.04;93.29;103107.56;5228621;28;20028;-81
2022/03/22 09:16:01;;;;;;;30.85;17.45;;;;;;;17.18;90.13;103103.47;5228452;28;20514;-81
2022/03/22 09:18:31;;;;;;;31.48;17.50;;;;;;;17.52;85.29;103108.16;5228109;28;20033;-81
2022/03/22 09:21:02;;;;;;;32.63;17.35;;;;;;;17.17;86.33;103109.03;5228238;28;20028;-81
2022/03/22 09:23:32;;;;;;;29.92;16.80;;;;;;;17.37;88.21;103102.47;5227854;28;20021;-81
2022/03/22 09:26:03;;;;;;;35.03;17.92;;;;;;;17.83;86.58;103101.31;5227364;28;20100;-81
2022/03/22 09:28:33;;;;;;;35.05;17.40;;;;;;;17.88;81.51;103105.44;5228260;28;20059;-82
2022/03/22 09:31:04;;;;;;;31.85;17.23;;;;;;;18.09;77.20;103098.59;5226369;28;20025;-79
2022/03/22 09:33:35;;;;;;;30.90;17.05;;;;;;;18.27;73.40;103095.81;5225199;28;20025;-79
2022/03/22 09:36:06;;;;;;;31.05;17.52;;;;;;;18.47;73.91;103107.25;5225328;28;20391;-79
2022/03/22 09:38:37;;;;;;;27.20;16.15;;;;;;;18.77;74.61;103105.84;5227939;28;20032;-82
2022/03/22 09:41:26;;;;;;;36.88;18.02;;;;;;;18.96;70.83;103104.72;5232914;28;20079;-81
2022/03/22 09:43:57;;;;;;;39.60;18.75;;;;;;;19.08;67.03;103105.25;5217869;28;20428;-79
2022/03/22 09:46:28;;;;;;;33.20;16.92;;;;;;;19.02;67.93;103109.47;5228392;28;20128;-80
2022/03/22 09:48:59;;;;;;;29.08;17.27;;;;;;;18.94;64.90;103106.75;5230510;28;20014;-80
2022/03/22 09:54:22;;;;;;;27.15;15.68;;;;;;;19.65;65.84;103108.88;5230451;28;20033;-80
2022/03/22 09:56:53;;;;;;;33.47;17.38;;;;;;;19.78;65.39;103102.91;5229701;28;20500;-80
2022/03/22 09:59:23;;;;;;;32.50;16.38;;;;;;;19.99;60.23;103106.94;5231057;28;20104;-80
2022/03/22 10:02:00;;;;;;;33.25;16.85;;;;;;;19.39;60.16;103089.97;5208580;28;20056;-80
2022/03/22 10:04:49;;;;;;;29.17;16.00;;;;;;;19.26;58.85;103096.94;5203858;28;20389;-79
2022/03/22 10:07:21;;;;;;;31.00;16.75;;;;;;;19.55;58.78;103093.69;5224980;28;20032;-80
2022/03/22 10:09:54;;;;;;;30.02;16.17;;;;;;;19.50;57.91;103086.03;5224175;28;20107;-80
2022/03/22 10:12:55;;;;;;;34.35;16.45;;;;;;;19.55;57.44;103096.41;5225314;28;20040;-80
2022/03/22 10:15:42;;;;;;;29.20;15.50;;;;;;;19.66;57.61;103085.19;5224279;28;20548;-80
2022/03/22 10:18:13;;;;;;;31.67;16.70;;;;;;;19.91;58.88;103095.03;5226102;28;20472;-80
2022/03/22 10:20:43;;;;;;;31.27;15.35;;;;;;;19.80;56.93;103092.69;5225752;28;20059;-80
2022/03/22 10:23:14;;;;;;;28.15;15.48;;;;;;;19.61;56.57;103080.28;5228339;28;20033;-79
2022/03/22 10:25:44;;;;;;;33.08;14.95;;;;;;;19.68;55.70;103080.47;5228099;28;20021;-80
2022/03/22 10:28:15;;;;;;;28.15;15.45;;;;;;;19.81;54.24;103080.75;5229415;28;20032;-80
2022/03/22 10:30:55;;;;;;;31.48;16.08;;;;;;;19.76;53.15;103080.41;5228737;28;20396;-80
2022/03/22 10:33:26;;;;;;;33.60;15.10;;;;;;;19.50;56.06;103080.59;5224821;28;20032;-80
2022/03/22 10:35:57;;;;;;;33.65;15.50;;;;;;;19.55;56.97;103075.50;5226331;28;20480;-80
2022/03/22 10:38:27;;;;;;;27.02;14.40;;;;;;;19.58;56.39;103075.16;5224660;28;20033;-79
2022/03/22 10:40:58;;;;;;;32.38;15.65;;;;;;;19.73;56.00;103082.63;5223920;28;20036;-78
2022/03/22 10:43:31;;;;;;;32.30;16.10;;;;;;;19.74;55.48;103078.91;5223848;28;20025;-78
2022/03/22 10:46:01;;;;;;;30.92;16.33;;;;;;;19.41;56.39;103078.91;5224200;28;20033;-80
2022/03/22 10:48:34;;;;;;;33.08;15.82;;;;;;;19.25;56.41;103071.59;5225029;28;20025;-80
2022/03/22 10:51:06;;;;;;;31.75;14.85;;;;;;;19.39;53.67;103075.50;5225442;28;20025;-80
2022/03/22 10:53:36;;;;;;;27.73;14.77;;;;;;;19.65;53.23;103073.47;5224889;28;20090;-80
2022/03/22 10:56:07;;;;;;;32.60;15.27;;;;;;;19.94;55.25;103074.78;5225288;28;20028;-80
2022/03/22 10:58:39;;;;;;;29.92;15.80;;;;;;;20.08;52.24;103075.91;5225332;28;20089;-80
2022/03/22 11:01:12;;;;;;;32.60;16.15;;;;;;;19.97;53.82;103074.41;5210492;28;20378;-80
2022/03/22 11:03:43;;;;;;;26.30;13.90;;;;;;;20.15;50.48;103066.03;5211189;28;20084;-80
2022/03/22 11:06:17;;;;;;;28.25;15.23;;;;;;;20.04;50.07;103061.81;5224348;28;20112;-80
2022/03/22 11:08:47;;;;;;;33.15;16.23;;;;;;;20.04;49.11;103061.81;5223711;28;20512;-80
2022/03/22 11:11:18;;;;;;;29.83;15.45;;;;;;;20.20;49.63;103060.88;5223701;28;20033;-80
2022/03/22 11:13:48;;;;;;;33.03;15.77;;;;;;;20.18;48.78;103060.19;5225092;28;20283;-80
2022/03/22 11:16:20;;;;;;;31.02;15.65;;;;;;;20.05;48.89;103057.19;5224406;28;20037;-80
2022/03/22 11:18:51;;;;;;;33.67;15.32;;;;;;;20.20;50.17;103058.16;5224544;28;20059;-80
2022/03/22 11:21:22;;;;;;;42.80;16.58;;;;;;;20.31;49.61;103055.03;5224092;28;20047;-81
2022/03/22 11:24:03;;;;;;;32.80;15.90;;;;;;;20.35;48.93;103052.81;5224640;28;20087;-82
2022/03/22 11:26:54;;;;;;;30.95;15.25;;;;;;;20.26;49.03;103046.53;5225247;28;20111;-80
2022/03/22 11:29:25;;;;;;;32.60;16.48;;;;;;;20.23;48.89;103048.78;5224175;28;20112;-80
2022/03/22 11:34:45;;;;;;;33.22;15.43;;;;;;;20.14;48.62;103051.56;5227608;28;20488;-80
2022/03/22 11:37:28;;;;;;;34.22;16.08;;;;;;;20.07;52.14;103039.63;5228054;28;20488;-80
2022/03/22 11:43:09;;;;;;;31.73;15.57;;;;;;;20.42;51.12;103032.81;5227359;28;20039;-79
2022/03/22 11:45:59;;;;;;;33.05;15.73;;;;;;;20.57;46.52;103030.22;5224389;28;20064;-80
2022/03/22 11:48:31;;;;;;;40.00;17.83;;;;;;;20.48;47.32;103023.13;5226044;28;20035;-79
2022/03/22 11:51:05;;;;;;;34.13;17.63;;;;;;;20.51;47.83;103035.56;5225709;28;20036;-80
2022/03/22 11:53:57;;;;;;;38.35;16.83;;;;;;;20.60;48.13;103029.03;5225264;28;20051;-80
2022/03/22 11:56:28;;;;;;;34.90;17.48;;;;;;;20.62;47.27;103022.34;5225572;28;20029;-80
2022/03/22 11:59:03;;;;;;;32.80;14.88;;;;;;;20.77;46.23;103016.97;5224466;28;20396;-80
2022/03/22 12:01:36;;;;;;;28.85;15.52;;;;;;;20.85;45.97;103019.66;5206179;28;20056;-80
2022/03/22 12:04:42;;;;;;;34.08;15.23;;;;;;;21.01;45.92;103015.94;5216369;28;20104;-80
2022/03/22 12:07:12;;;;;;;33.20;16.33;;;;;;;21.01;48.43;103015.94;5226953;28;20120;-80
2022/03/22 12:09:43;;;;;;;33.78;16.75;;;;;;;20.90;46.39;103011.75;5226849;28;20100;-80
2022/03/22 12:12:15;;;;;;;33.70;15.05;;;;;;;21.04;47.21;103014.75;5225433;28;20029;-79
2022/03/22 12:14:47;;;;;;;27.67;14.00;;;;;;;21.01;43.97;103018.66;5226489;28;20104;-80
2022/03/22 12:17:18;;;;;;;31.65;14.93;;;;;;;20.84;42.40;102998.88;5226659;28;20020;-79
2022/03/22 12:19:49;;;;;;;31.90;13.55;;;;;;;20.89;42.29;103006.50;5226461;28;20068;-79